Time,TemperatureF,DewpointF,PressureIn,WindDirection,WindDirectionDegrees,WindSpeedMPH,WindSpeedGustMPH,Humidity,HourlyPrecipIn,Conditions,Clouds,dailyrainin,SolarRadiationWatts/m^2,SoftwareType,DateUTC
2013-08-25 00:03:00,62.0,44.0,-100.00,South,181,3.0,5.0,51,0.00,,,0.02,0.000000,,2013-08-25 06:03:00,
2013-08-25 00:12:00,62.0,44.0,-100.00,South,181,3.0,5.0,51,0.00,,,0.02,0.000000,,2013-08-25 06:12:00,
2013-08-25 00:43:00,61.0,44.0,-100.00,SSW,206,3.0,7.0,54,0.00,,,0.02,0.000000,,2013-08-25 06:43:00,
2013-08-25 00:52:00,61.0,44.0,-100.00,SSW,206,3.0,7.0,54,0.00,,,0.02,0.000000,,2013-08-25 06:52:00,
2013-08-25 01:01:00,61.0,44.0,-100.00,SSW,206,3.0,7.0,54,0.00,,,0.02,0.000000,,2013-08-25 07:01:00,
2013-08-25 01:12:00,61.0,44.0,-100.00,SSW,206,3.0,7.0,54,0.00,,,0.02,0.000000,,2013-08-25 07:12:00,
2013-08-25 01:42:00,61.0,45.0,-100.00,SW,232,2.0,5.0,56,0.00,,,0.01,0.000000,,2013-08-25 07:42:00,
2013-08-25 01:52:00,61.0,45.0,-100.00,SW,232,2.0,5.0,56,0.00,,,0.01,0.000000,,2013-08-25 07:52:00,
2013-08-25 02:02:00,61.0,45.0,-100.00,SW,232,2.0,5.0,56,0.00,,,0.01,0.000000,,2013-08-25 08:02:00,
2013-08-25 02:12:00,61.0,45.0,-100.00,SW,232,2.0,5.0,56,0.00,,,0.01,0.000000,,2013-08-25 08:12:00,
2013-08-25 02:42:00,60.0,45.0,-100.00,SSE,154,3.0,4.0,58,0.00,,,0.01,0.000000,,2013-08-25 08:42:00,
2013-08-25 02:52:00,60.0,45.0,-100.00,SSE,154,3.0,4.0,58,0.00,,,0.01,0.000000,,2013-08-25 08:52:00,
2013-08-25 03:02:00,60.0,45.0,-100.00,SSE,154,3.0,4.0,58,0.00,,,0.01,0.000000,,2013-08-25 09:02:00,
2013-08-25 03:11:00,60.0,45.0,-100.00,SSE,154,3.0,4.0,58,0.00,,,0.01,0.000000,,2013-08-25 09:11:00,
2013-08-25 03:44:00,57.0,45.0,-100.00,South,189,3.0,5.0,63,0.00,,,0.01,0.000000,,2013-08-25 09:44:00,
2013-08-25 03:55:00,57.0,45.0,-100.00,South,189,3.0,5.0,63,0.00,,,0.01,0.000000,,2013-08-25 09:55:00,
2013-08-25 04:03:00,57.0,45.0,-100.00,South,189,3.0,5.0,63,0.00,,,0.01,0.000000,,2013-08-25 10:03:00,
2013-08-25 04:12:00,57.0,45.0,-100.00,South,189,3.0,5.0,63,0.00,,,0.01,0.000000,,2013-08-25 10:12:00,
2013-08-25 04:42:00,57.0,45.0,-100.00,SW,216,3.0,4.0,65,0.00,,,0.01,0.000000,,2013-08-25 10:42:00,
2013-08-25 04:53:00,57.0,45.0,-100.00,SW,216,3.0,4.0,65,0.00,,,0.01,0.000000,,2013-08-25 10:53:00,
2013-08-25 05:02:00,57.0,45.0,-100.00,SW,216,3.0,4.0,65,0.00,,,0.01,0.000000,,2013-08-25 11:02:00,
2013-08-25 05:12:00,57.0,45.0,-100.00,SW,216,3.0,4.0,65,0.00,,,0.01,0.000000,,2013-08-25 11:12:00,
2013-08-25 05:42:00,57.0,45.0,-100.00,ESE,122,1.0,4.0,64,0.00,,,0.01,0.000000,,2013-08-25 11:42:00,
2013-08-25 05:52:00,57.0,45.0,-100.00,ESE,122,1.0,4.0,64,0.00,,,0.01,0.000000,,2013-08-25 11:52:00,
2013-08-25 06:01:00,57.0,45.0,-100.00,ESE,122,1.0,4.0,64,0.00,,,0.01,0.000000,,2013-08-25 12:01:00,
2013-08-25 06:12:00,57.0,45.0,-100.00,ESE,122,1.0,4.0,64,0.00,,,0.01,0.000000,,2013-08-25 12:12:00,
2013-08-25 06:43:00,57.0,44.0,-100.00,South,191,1.0,9.0,62,0.00,,,0.01,0.000000,,2013-08-25 12:43:00,
2013-08-25 06:52:00,57.0,44.0,-100.00,South,191,1.0,9.0,62,0.00,,,0.01,0.000000,,2013-08-25 12:52:00,
2013-08-25 07:02:00,57.0,44.0,-100.00,South,191,1.0,9.0,62,0.00,,,0.01,0.000000,,2013-08-25 13:02:00,
2013-08-25 07:12:00,57.0,44.0,-100.00,South,191,1.0,9.0,62,0.00,,,0.01,0.000000,,2013-08-25 13:12:00,
2013-08-25 07:42:00,56.0,44.0,-100.00,South,181,2.0,5.0,65,0.00,,,0.01,26.000000,,2013-08-25 13:42:00,
2013-08-25 07:52:00,56.0,44.0,-100.00,South,181,2.0,5.0,65,0.00,,,0.01,26.000000,,2013-08-25 13:52:00,
2013-08-25 08:02:00,56.0,44.0,-100.00,South,181,2.0,5.0,65,0.00,,,0.01,26.000000,,2013-08-25 14:02:00,
2013-08-25 08:11:00,56.0,44.0,-100.00,South,181,2.0,5.0,65,0.00,,,0.01,26.000000,,2013-08-25 14:11:00,
2013-08-25 09:11:00,60.0,46.0,-100.00,SSE,167,1.0,4.0,59,0.00,,,0.00,135.000000,,2013-08-25 15:11:00,
2013-08-25 09:13:00,63.0,46.0,-100.00,South,177,2.0,7.0,54,0.00,,,0.00,316.000000,,2013-08-25 15:13:00,
2013-08-25 09:44:00,63.0,46.0,-100.00,South,177,2.0,7.0,54,0.00,,,0.00,316.000000,,2013-08-25 15:44:00,
2013-08-25 09:55:00,63.0,46.0,-100.00,South,177,2.0,7.0,54,0.00,,,0.00,316.000000,,2013-08-25 15:55:00,
2013-08-25 10:05:00,63.0,46.0,-100.00,South,177,2.0,7.0,54,0.00,,,0.00,316.000000,,2013-08-25 16:05:00,
2013-08-25 11:11:00,69.0,47.0,-100.00,South,170,3.0,7.0,45,0.00,,,0.00,503.000000,,2013-08-25 17:11:00,
2013-08-25 12:12:00,75.0,46.0,-100.00,SE,136,4.0,10.0,36,0.00,,,0.00,774.000000,,2013-08-25 18:12:00,
2013-08-25 12:52:00,78.0,46.0,-100.00,SE,125,6.0,14.0,32,-99.99,,,0.00,965.000000,,2013-08-25 18:52:00,
2013-08-25 13:02:00,78.0,46.0,-100.00,SE,125,6.0,14.0,32,-99.99,,,0.00,965.000000,,2013-08-25 19:02:00,
2013-08-25 13:11:00,78.0,46.0,-100.00,SE,125,6.0,14.0,32,-99.99,,,0.00,965.000000,,2013-08-25 19:11:00,
2013-08-25 13:42:00,75.0,45.0,-100.00,WSW,241,3.0,13.0,35,0.00,,,0.00,406.000000,,2013-08-25 19:42:00,
2013-08-25 13:53:00,75.0,45.0,-100.00,WSW,241,3.0,13.0,35,0.00,,,0.00,406.000000,,2013-08-25 19:53:00,
2013-08-25 14:03:00,75.0,45.0,-100.00,WSW,241,3.0,13.0,35,0.00,,,0.00,406.000000,,2013-08-25 20:03:00,
2013-08-25 14:12:00,75.0,45.0,-100.00,WSW,241,3.0,13.0,35,0.00,,,0.00,406.000000,,2013-08-25 20:12:00,
2013-08-25 14:43:00,74.0,46.0,-100.00,WSW,237,7.0,14.0,37,0.00,,,0.00,289.000000,,2013-08-25 20:43:00,
2013-08-25 14:53:00,74.0,46.0,-100.00,WSW,237,7.0,14.0,37,0.00,,,0.00,289.000000,,2013-08-25 20:53:00,
2013-08-25 15:01:00,74.0,46.0,-100.00,WSW,237,7.0,14.0,37,0.00,,,0.00,289.000000,,2013-08-25 21:01:00,
2013-08-25 15:12:00,74.0,46.0,-100.00,WSW,237,7.0,14.0,37,0.00,,,0.00,289.000000,,2013-08-25 21:12:00,
2013-08-25 15:13:00,63.0,55.0,-100.00,WSW,243,8.0,17.0,76,0.01,,,0.01,179.000000,,2013-08-25 21:13:00,
2013-08-25 15:43:00,63.0,55.0,-100.00,WSW,243,8.0,17.0,76,0.01,,,0.01,179.000000,,2013-08-25 21:43:00,
2013-08-25 15:55:00,63.0,55.0,-100.00,WSW,243,8.0,17.0,76,0.01,,,0.01,179.000000,,2013-08-25 21:55:00,
2013-08-25 16:03:00,63.0,55.0,-100.00,WSW,243,8.0,17.0,76,0.01,,,0.01,179.000000,,2013-08-25 22:03:00,
2013-08-25 16:43:00,67.0,54.0,-100.00,South,183,3.0,12.0,64,0.00,,,0.01,296.000000,,2013-08-25 22:43:00,
2013-08-25 16:53:00,67.0,54.0,-100.00,South,183,3.0,12.0,64,0.00,,,0.01,296.000000,,2013-08-25 22:53:00,
2013-08-25 17:03:00,67.0,54.0,-100.00,South,183,3.0,12.0,64,0.00,,,0.01,296.000000,,2013-08-25 23:03:00,
2013-08-25 17:12:00,67.0,54.0,-100.00,South,183,3.0,12.0,64,0.00,,,0.01,296.000000,,2013-08-25 23:12:00,
2013-08-25 17:43:00,70.0,52.0,-100.00,SSW,200,2.0,9.0,53,0.00,,,0.01,327.000000,,2013-08-25 23:43:00,
2013-08-25 17:53:00,70.0,52.0,-100.00,SSW,200,2.0,9.0,53,0.00,,,0.01,327.000000,,2013-08-25 23:53:00,
2013-08-25 18:02:00,70.0,52.0,-100.00,SSW,200,2.0,9.0,53,0.00,,,0.01,327.000000,,2013-08-26 00:02:00,
2013-08-25 18:11:00,70.0,52.0,-100.00,SSW,200,2.0,9.0,53,0.00,,,0.01,327.000000,,2013-08-26 00:11:00,
2013-08-25 18:42:00,69.0,53.0,-100.00,SSE,159,4.0,8.0,57,0.00,,,0.01,224.000000,,2013-08-26 00:42:00,
2013-08-25 18:52:00,69.0,53.0,-100.00,SSE,159,4.0,8.0,57,0.00,,,0.01,224.000000,,2013-08-26 00:52:00,
2013-08-25 19:01:00,69.0,53.0,-100.00,SSE,159,4.0,8.0,57,0.00,,,0.01,224.000000,,2013-08-26 01:01:00,
2013-08-25 19:11:00,69.0,53.0,-100.00,SSE,159,4.0,8.0,57,0.00,,,0.01,224.000000,,2013-08-26 01:11:00,
2013-08-25 19:42:00,65.0,55.0,-100.00,SW,219,1.0,7.0,71,0.00,,,0.01,56.000000,,2013-08-26 01:42:00,
2013-08-25 19:52:00,65.0,55.0,-100.00,SW,219,1.0,7.0,71,0.00,,,0.01,56.000000,,2013-08-26 01:52:00,
2013-08-25 20:02:00,65.0,55.0,-100.00,SW,219,1.0,7.0,71,0.00,,,0.01,56.000000,,2013-08-26 02:02:00,
2013-08-25 20:11:00,65.0,55.0,-100.00,SW,219,1.0,7.0,71,0.00,,,0.01,56.000000,,2013-08-26 02:11:00,
2013-08-25 20:42:00,62.0,54.0,-100.00,NW,322,5.0,9.0,74,0.00,,,-99.99,5.000000,,2013-08-26 02:42:00,
2013-08-25 20:52:00,62.0,54.0,-100.00,NW,322,5.0,9.0,74,0.00,,,-99.99,5.000000,,2013-08-26 02:52:00,
2013-08-25 21:02:00,62.0,54.0,-100.00,NW,322,5.0,9.0,74,0.00,,,-99.99,5.000000,,2013-08-26 03:02:00,
2013-08-25 21:11:00,62.0,54.0,-100.00,NW,322,5.0,9.0,74,0.00,,,-99.99,5.000000,,2013-08-26 03:11:00,
2013-08-25 21:13:00,58.0,57.0,-100.00,WSW,253,4.0,11.0,95,0.14,,,0.15,0.000000,,2013-08-26 03:13:00,
2013-08-25 21:44:00,58.0,57.0,-100.00,WSW,253,4.0,11.0,95,0.14,,,0.15,0.000000,,2013-08-26 03:44:00,
2013-08-25 21:56:00,58.0,57.0,-100.00,WSW,253,4.0,11.0,95,0.14,,,0.15,0.000000,,2013-08-26 03:56:00,
2013-08-25 22:05:00,58.0,57.0,-100.00,WSW,253,4.0,11.0,95,0.14,,,0.15,0.000000,,2013-08-26 04:05:00,
2013-08-25 22:13:00,57.0,56.0,-100.00,NNW,341,3.0,8.0,96,0.02,,,0.17,0.000000,,2013-08-26 04:13:00,
2013-08-25 22:44:00,57.0,56.0,-100.00,NNW,341,3.0,8.0,96,0.02,,,0.17,0.000000,,2013-08-26 04:44:00,
2013-08-25 22:53:00,57.0,56.0,-100.00,NNW,341,3.0,8.0,96,0.02,,,0.17,0.000000,,2013-08-26 04:53:00,
2013-08-25 23:03:00,57.0,56.0,-100.00,NNW,341,3.0,8.0,96,0.02,,,0.17,0.000000,,2013-08-26 05:03:00,
2013-08-25 23:44:00,57.0,56.0,-100.00,South,172,1.0,5.0,97,0.01,,,0.18,0.000000,,2013-08-26 05:44:00,
2013-08-25 23:52:00,57.0,56.0,-100.00,South,172,1.0,5.0,97,0.01,,,0.18,0.000000,,2013-08-26 05:52:00,